ΕΜΥ, Εθνική Μετεωρολογική Υπηρεσία - Δελτία Καιρού, Προγνώσεις

ΑΕΡΟΝΑΥΤΙΛΙΑ

GREEK AIRPORTS CODES

LGEL 070520Z 00000KT 9999 SCT025 SCT070 11/06 Q1023=

EUROPEAN AIRPORTS CODES

TAF LGEL 070500Z 0706/0806 35010KT 9999 FEW020 SCT025 TEMPO 0706/0712 35010G22KT PROB30 TEMPO 0706/0710 5000 RA SCT018 BKN030=